sensor_id;sensor_type;location;lat;lon;timestamp;P1;durP1;ratioP1;P2;durP2;ratioP2
39050;SDS011;24805;55.852;37.644;2024-02-16T00:04:24;13.40;;;4.97;;
39050;SDS011;24805;55.852;37.644;2024-02-16T00:09:26;11.15;;;4.55;;
39050;SDS011;24805;55.852;37.644;2024-02-16T00:14:29;10.48;;;4.82;;
39050;SDS011;24805;55.852;37.644;2024-02-16T00:19:31;8.38;;;3.95;;
39050;SDS011;24805;55.852;37.644;2024-02-16T00:24:34;13.68;;;5.22;;
39050;SDS011;24805;55.852;37.644;2024-02-16T00:29:38;8.93;;;3.83;;
39050;SDS011;24805;55.852;37.644;2024-02-16T00:34:40;11.02;;;4.75;;
39050;SDS011;24805;55.852;37.644;2024-02-16T00:39:43;11.50;;;5.20;;
39050;SDS011;24805;55.852;37.644;2024-02-16T00:44:45;13.18;;;4.78;;
39050;SDS011;24805;55.852;37.644;2024-02-16T00:49:48;11.25;;;4.25;;
39050;SDS011;24805;55.852;37.644;2024-02-16T00:54:50;11.77;;;4.70;;
39050;SDS011;24805;55.852;37.644;2024-02-16T00:59:52;8.98;;;3.65;;
39050;SDS011;24805;55.852;37.644;2024-02-16T01:04:55;8.88;;;4.18;;
39050;SDS011;24805;55.852;37.644;2024-02-16T01:10:04;9.52;;;4.45;;
39050;SDS011;24805;55.852;37.644;2024-02-16T01:15:07;10.32;;;5.72;;
39050;SDS011;24805;55.852;37.644;2024-02-16T01:20:09;10.68;;;4.38;;
39050;SDS011;24805;55.852;37.644;2024-02-16T01:25:13;12.10;;;4.55;;
39050;SDS011;24805;55.852;37.644;2024-02-16T01:30:15;9.90;;;4.30;;
39050;SDS011;24805;55.852;37.644;2024-02-16T01:35:17;12.77;;;5.55;;
39050;SDS011;24805;55.852;37.644;2024-02-16T01:40:21;14.00;;;5.28;;
39050;SDS011;24805;55.852;37.644;2024-02-16T01:45:23;12.70;;;4.78;;
39050;SDS011;24805;55.852;37.644;2024-02-16T01:50:25;11.07;;;4.32;;
39050;SDS011;24805;55.852;37.644;2024-02-16T01:55:31;9.73;;;4.55;;
39050;SDS011;24805;55.852;37.644;2024-02-16T02:00:33;8.30;;;3.38;;
39050;SDS011;24805;55.852;37.644;2024-02-16T02:05:43;10.13;;;4.78;;
39050;SDS011;24805;55.852;37.644;2024-02-16T02:10:49;14.82;;;4.43;;
39050;SDS011;24805;55.852;37.644;2024-02-16T02:15:51;9.13;;;4.60;;
39050;SDS011;24805;55.852;37.644;2024-02-16T02:20:55;10.32;;;4.68;;
39050;SDS011;24805;55.852;37.644;2024-02-16T02:25:57;10.52;;;4.30;;
39050;SDS011;24805;55.852;37.644;2024-02-16T02:31:00;11.43;;;4.93;;
39050;SDS011;24805;55.852;37.644;2024-02-16T02:36:02;9.95;;;4.53;;
39050;SDS011;24805;55.852;37.644;2024-02-16T02:41:06;12.50;;;4.25;;
39050;SDS011;24805;55.852;37.644;2024-02-16T02:46:09;9.73;;;4.85;;
39050;SDS011;24805;55.852;37.644;2024-02-16T02:51:11;12.48;;;4.70;;
39050;SDS011;24805;55.852;37.644;2024-02-16T02:56:13;8.48;;;4.78;;
39050;SDS011;24805;55.852;37.644;2024-02-16T03:01:15;11.57;;;4.65;;
39050;SDS011;24805;55.852;37.644;2024-02-16T03:06:21;11.15;;;4.03;;
39050;SDS011;24805;55.852;37.644;2024-02-16T03:11:25;10.38;;;5.18;;
39050;SDS011;24805;55.852;37.644;2024-02-16T03:16:28;10.15;;;4.43;;
39050;SDS011;24805;55.852;37.644;2024-02-16T03:21:30;9.15;;;4.35;;
39050;SDS011;24805;55.852;37.644;2024-02-16T03:26:33;11.95;;;4.50;;
39050;SDS011;24805;55.852;37.644;2024-02-16T03:31:36;9.57;;;4.35;;
39050;SDS011;24805;55.852;37.644;2024-02-16T03:36:39;11.45;;;4.95;;
39050;SDS011;24805;55.852;37.644;2024-02-16T03:41:41;11.25;;;5.13;;
39050;SDS011;24805;55.852;37.644;2024-02-16T03:46:44;10.80;;;4.82;;
39050;SDS011;24805;55.852;37.644;2024-02-16T03:51:46;12.20;;;5.30;;
39050;SDS011;24805;55.852;37.644;2024-02-16T03:56:52;9.43;;;4.22;;
39050;SDS011;24805;55.852;37.644;2024-02-16T04:01:55;9.23;;;4.22;;
39050;SDS011;24805;55.852;37.644;2024-02-16T04:06:58;13.77;;;5.63;;
39050;SDS011;24805;55.852;37.644;2024-02-16T04:12:01;13.23;;;5.78;;
39050;SDS011;24805;55.852;37.644;2024-02-16T04:17:05;11.45;;;5.25;;
39050;SDS011;24805;55.852;37.644;2024-02-16T04:22:07;11.10;;;4.72;;
39050;SDS011;24805;55.852;37.644;2024-02-16T04:27:10;11.07;;;5.68;;
39050;SDS011;24805;55.852;37.644;2024-02-16T04:32:12;13.77;;;6.22;;
39050;SDS011;24805;55.852;37.644;2024-02-16T04:37:14;13.25;;;5.43;;
39050;SDS011;24805;55.852;37.644;2024-02-16T04:42:16;10.75;;;5.75;;
39050;SDS011;24805;55.852;37.644;2024-02-16T04:47:19;12.20;;;5.65;;
39050;SDS011;24805;55.852;37.644;2024-02-16T04:52:22;11.57;;;5.43;;
39050;SDS011;24805;55.852;37.644;2024-02-16T04:57:27;12.85;;;4.75;;
39050;SDS011;24805;55.852;37.644;2024-02-16T05:02:30;13.88;;;5.85;;
39050;SDS011;24805;55.852;37.644;2024-02-16T05:07:32;14.05;;;4.53;;
39050;SDS011;24805;55.852;37.644;2024-02-16T05:12:37;14.73;;;6.47;;
39050;SDS011;24805;55.852;37.644;2024-02-16T05:17:40;12.80;;;5.78;;
39050;SDS011;24805;55.852;37.644;2024-02-16T05:22:43;9.63;;;5.18;;
39050;SDS011;24805;55.852;37.644;2024-02-16T05:27:47;13.35;;;6.30;;
39050;SDS011;24805;55.852;37.644;2024-02-16T05:32:50;14.65;;;7.07;;
39050;SDS011;24805;55.852;37.644;2024-02-16T05:37:55;15.43;;;6.93;;
39050;SDS011;24805;55.852;37.644;2024-02-16T05:42:57;13.20;;;6.85;;
39050;SDS011;24805;55.852;37.644;2024-02-16T05:48:00;13.43;;;5.88;;
39050;SDS011;24805;55.852;37.644;2024-02-16T05:53:04;12.95;;;5.47;;
39050;SDS011;24805;55.852;37.644;2024-02-16T05:58:06;15.57;;;5.90;;
39050;SDS011;24805;55.852;37.644;2024-02-16T06:03:09;13.48;;;5.88;;
39050;SDS011;24805;55.852;37.644;2024-02-16T06:08:11;11.60;;;6.10;;
39050;SDS011;24805;55.852;37.644;2024-02-16T06:13:14;9.95;;;5.20;;
39050;SDS011;24805;55.852;37.644;2024-02-16T06:18:16;11.77;;;5.50;;
39050;SDS011;24805;55.852;37.644;2024-02-16T06:23:19;13.63;;;6.05;;
39050;SDS011;24805;55.852;37.644;2024-02-16T06:28:21;12.32;;;6.13;;
39050;SDS011;24805;55.852;37.644;2024-02-16T06:33:24;16.02;;;6.97;;
39050;SDS011;24805;55.852;37.644;2024-02-16T06:38:27;12.20;;;5.35;;
39050;SDS011;24805;55.852;37.644;2024-02-16T06:43:29;14.77;;;6.20;;
39050;SDS011;24805;55.852;37.644;2024-02-16T06:48:31;11.77;;;6.07;;
39050;SDS011;24805;55.852;37.644;2024-02-16T06:53:34;14.80;;;5.72;;
39050;SDS011;24805;55.852;37.644;2024-02-16T06:58:36;12.25;;;5.57;;
39050;SDS011;24805;55.852;37.644;2024-02-16T07:03:38;14.60;;;5.85;;
39050;SDS011;24805;55.852;37.644;2024-02-16T07:08:41;13.30;;;6.22;;
39050;SDS011;24805;55.852;37.644;2024-02-16T07:13:44;15.93;;;7.80;;
39050;SDS011;24805;55.852;37.644;2024-02-16T07:18:46;16.20;;;7.32;;
39050;SDS011;24805;55.852;37.644;2024-02-16T07:23:49;18.73;;;7.60;;
39050;SDS011;24805;55.852;37.644;2024-02-16T07:28:51;19.13;;;7.65;;
39050;SDS011;24805;55.852;37.644;2024-02-16T07:33:53;19.92;;;7.72;;
39050;SDS011;24805;55.852;37.644;2024-02-16T07:38:55;13.85;;;7.07;;
39050;SDS011;24805;55.852;37.644;2024-02-16T07:43:58;18.95;;;7.65;;
39050;SDS011;24805;55.852;37.644;2024-02-16T07:49:00;16.70;;;6.97;;
39050;SDS011;24805;55.852;37.644;2024-02-16T07:54:03;17.10;;;7.40;;
39050;SDS011;24805;55.852;37.644;2024-02-16T07:59:05;15.52;;;6.95;;
39050;SDS011;24805;55.852;37.644;2024-02-16T08:04:08;13.95;;;7.75;;
39050;SDS011;24805;55.852;37.644;2024-02-16T08:09:10;14.98;;;7.35;;
39050;SDS011;24805;55.852;37.644;2024-02-16T08:14:13;13.52;;;6.95;;
39050;SDS011;24805;55.852;37.644;2024-02-16T08:19:15;14.52;;;7.50;;
39050;SDS011;24805;55.852;37.644;2024-02-16T08:24:17;17.52;;;7.60;;
39050;SDS011;24805;55.852;37.644;2024-02-16T08:29:20;13.25;;;7.10;;
39050;SDS011;24805;55.852;37.644;2024-02-16T08:34:22;19.20;;;8.43;;
39050;SDS011;24805;55.852;37.644;2024-02-16T08:39:25;18.92;;;8.82;;
39050;SDS011;24805;55.852;37.644;2024-02-16T08:44:27;17.75;;;9.23;;
39050;SDS011;24805;55.852;37.644;2024-02-16T08:49:29;18.15;;;8.80;;
39050;SDS011;24805;55.852;37.644;2024-02-16T08:54:32;19.25;;;8.23;;
39050;SDS011;24805;55.852;37.644;2024-02-16T08:59:34;17.52;;;8.32;;
39050;SDS011;24805;55.852;37.644;2024-02-16T09:04:36;19.45;;;9.20;;
39050;SDS011;24805;55.852;37.644;2024-02-16T09:09:39;18.85;;;8.38;;
39050;SDS011;24805;55.852;37.644;2024-02-16T09:14:41;18.02;;;8.65;;
39050;SDS011;24805;55.852;37.644;2024-02-16T09:19:43;16.40;;;8.05;;
39050;SDS011;24805;55.852;37.644;2024-02-16T09:24:46;16.98;;;7.97;;
39050;SDS011;24805;55.852;37.644;2024-02-16T09:29:49;20.83;;;10.27;;
39050;SDS011;24805;55.852;37.644;2024-02-16T09:34:51;21.58;;;10.68;;
39050;SDS011;24805;55.852;37.644;2024-02-16T09:39:54;20.02;;;8.77;;
39050;SDS011;24805;55.852;37.644;2024-02-16T09:44:56;16.25;;;9.13;;
39050;SDS011;24805;55.852;37.644;2024-02-16T09:49:58;17.08;;;8.52;;
39050;SDS011;24805;55.852;37.644;2024-02-16T09:55:01;21.45;;;9.60;;
39050;SDS011;24805;55.852;37.644;2024-02-16T10:00:04;23.05;;;10.13;;
39050;SDS011;24805;55.852;37.644;2024-02-16T10:05:21;19.65;;;9.20;;
39050;SDS011;24805;55.852;37.644;2024-02-16T10:10:25;18.02;;;9.20;;
39050;SDS011;24805;55.852;37.644;2024-02-16T10:15:29;17.58;;;8.48;;
39050;SDS011;24805;55.852;37.644;2024-02-16T10:20:32;16.63;;;9.23;;
39050;SDS011;24805;55.852;37.644;2024-02-16T10:25:36;23.27;;;10.00;;
39050;SDS011;24805;55.852;37.644;2024-02-16T10:30:40;20.88;;;10.90;;
39050;SDS011;24805;55.852;37.644;2024-02-16T10:35:46;22.13;;;10.65;;
39050;SDS011;24805;55.852;37.644;2024-02-16T10:40:51;23.95;;;10.13;;
39050;SDS011;24805;55.852;37.644;2024-02-16T10:45:53;21.25;;;10.40;;
39050;SDS011;24805;55.852;37.644;2024-02-16T10:50:58;18.65;;;9.27;;
39050;SDS011;24805;55.852;37.644;2024-02-16T10:56:01;22.70;;;10.80;;
39050;SDS011;24805;55.852;37.644;2024-02-16T11:01:09;21.25;;;10.20;;
39050;SDS011;24805;55.852;37.644;2024-02-16T11:06:16;20.10;;;9.45;;
39050;SDS011;24805;55.852;37.644;2024-02-16T11:11:22;20.63;;;10.45;;
39050;SDS011;24805;55.852;37.644;2024-02-16T11:16:25;19.95;;;9.57;;
39050;SDS011;24805;55.852;37.644;2024-02-16T11:21:32;19.35;;;9.35;;
39050;SDS011;24805;55.852;37.644;2024-02-16T11:26:44;20.63;;;10.30;;
39050;SDS011;24805;55.852;37.644;2024-02-16T11:31:47;21.65;;;10.85;;
39050;SDS011;24805;55.852;37.644;2024-02-16T11:36:51;22.17;;;10.93;;
39050;SDS011;24805;55.852;37.644;2024-02-16T11:42:05;27.70;;;11.95;;
39050;SDS011;24805;55.852;37.644;2024-02-16T11:47:09;23.70;;;11.25;;
39050;SDS011;24805;55.852;37.644;2024-02-16T11:52:14;23.70;;;11.43;;
39050;SDS011;24805;55.852;37.644;2024-02-16T11:57:16;20.75;;;10.90;;
39050;SDS011;24805;55.852;37.644;2024-02-16T12:02:19;19.52;;;10.35;;
39050;SDS011;24805;55.852;37.644;2024-02-16T12:07:22;26.15;;;11.50;;
39050;SDS011;24805;55.852;37.644;2024-02-16T12:12:28;21.67;;;10.35;;
39050;SDS011;24805;55.852;37.644;2024-02-16T12:17:33;19.13;;;10.35;;
39050;SDS011;24805;55.852;37.644;2024-02-16T12:22:35;22.65;;;12.00;;
39050;SDS011;24805;55.852;37.644;2024-02-16T12:27:38;21.88;;;11.20;;
39050;SDS011;24805;55.852;37.644;2024-02-16T12:32:40;21.95;;;10.55;;
39050;SDS011;24805;55.852;37.644;2024-02-16T12:37:43;22.95;;;11.57;;
39050;SDS011;24805;55.852;37.644;2024-02-16T12:42:47;16.50;;;8.93;;
39050;SDS011;24805;55.852;37.644;2024-02-16T12:47:49;21.65;;;10.25;;
39050;SDS011;24805;55.852;37.644;2024-02-16T12:52:53;18.75;;;9.77;;
39050;SDS011;24805;55.852;37.644;2024-02-16T12:58:04;21.55;;;8.15;;
39050;SDS011;24805;55.852;37.644;2024-02-16T13:03:06;16.08;;;9.27;;
39050;SDS011;24805;55.852;37.644;2024-02-16T13:08:09;22.17;;;9.77;;
39050;SDS011;24805;55.852;37.644;2024-02-16T13:13:12;22.83;;;9.45;;
39050;SDS011;24805;55.852;37.644;2024-02-16T13:18:14;22.58;;;12.27;;
39050;SDS011;24805;55.852;37.644;2024-02-16T13:23:17;20.52;;;10.13;;
39050;SDS011;24805;55.852;37.644;2024-02-16T13:28:20;19.30;;;10.57;;
39050;SDS011;24805;55.852;37.644;2024-02-16T13:33:22;20.50;;;9.88;;
39050;SDS011;24805;55.852;37.644;2024-02-16T13:38:24;16.55;;;9.45;;
39050;SDS011;24805;55.852;37.644;2024-02-16T13:43:27;19.65;;;9.00;;
39050;SDS011;24805;55.852;37.644;2024-02-16T13:48:29;21.63;;;11.60;;
39050;SDS011;24805;55.852;37.644;2024-02-16T13:53:32;21.90;;;10.38;;
39050;SDS011;24805;55.852;37.644;2024-02-16T13:58:34;21.20;;;9.65;;
39050;SDS011;24805;55.852;37.644;2024-02-16T14:03:37;20.40;;;9.50;;
39050;SDS011;24805;55.852;37.644;2024-02-16T14:08:39;17.27;;;9.52;;
39050;SDS011;24805;55.852;37.644;2024-02-16T14:13:41;18.70;;;10.23;;
39050;SDS011;24805;55.852;37.644;2024-02-16T14:18:44;21.00;;;9.50;;
39050;SDS011;24805;55.852;37.644;2024-02-16T14:23:46;24.00;;;9.20;;
39050;SDS011;24805;55.852;37.644;2024-02-16T14:28:49;24.10;;;11.27;;
39050;SDS011;24805;55.852;37.644;2024-02-16T14:33:51;20.90;;;10.93;;
39050;SDS011;24805;55.852;37.644;2024-02-16T14:38:54;20.65;;;10.10;;
39050;SDS011;24805;55.852;37.644;2024-02-16T14:43:56;21.80;;;12.05;;
39050;SDS011;24805;55.852;37.644;2024-02-16T14:48:59;23.80;;;10.73;;
39050;SDS011;24805;55.852;37.644;2024-02-16T14:54:01;19.98;;;10.07;;
39050;SDS011;24805;55.852;37.644;2024-02-16T14:59:05;18.92;;;9.55;;
39050;SDS011;24805;55.852;37.644;2024-02-16T15:04:08;21.52;;;9.35;;
39050;SDS011;24805;55.852;37.644;2024-02-16T15:09:10;21.85;;;9.32;;
39050;SDS011;24805;55.852;37.644;2024-02-16T15:14:13;23.15;;;9.27;;
39050;SDS011;24805;55.852;37.644;2024-02-16T15:19:20;26.63;;;11.43;;
39050;SDS011;24805;55.852;37.644;2024-02-16T15:24:23;19.30;;;10.00;;
39050;SDS011;24805;55.852;37.644;2024-02-16T15:29:26;22.15;;;10.55;;
39050;SDS011;24805;55.852;37.644;2024-02-16T15:34:29;20.00;;;8.95;;
39050;SDS011;24805;55.852;37.644;2024-02-16T15:39:31;18.95;;;9.30;;
39050;SDS011;24805;55.852;37.644;2024-02-16T15:44:34;20.52;;;8.40;;
39050;SDS011;24805;55.852;37.644;2024-02-16T15:49:37;15.27;;;7.15;;
39050;SDS011;24805;55.852;37.644;2024-02-16T15:54:39;25.63;;;10.60;;
39050;SDS011;24805;55.852;37.644;2024-02-16T15:59:42;20.42;;;8.80;;
39050;SDS011;24805;55.852;37.644;2024-02-16T16:04:44;21.10;;;9.27;;
39050;SDS011;24805;55.852;37.644;2024-02-16T16:09:46;22.20;;;9.82;;
39050;SDS011;24805;55.852;37.644;2024-02-16T16:14:55;21.38;;;10.32;;
39050;SDS011;24805;55.852;37.644;2024-02-16T16:19:58;17.10;;;8.38;;
39050;SDS011;24805;55.852;37.644;2024-02-16T16:25:03;15.88;;;8.55;;
39050;SDS011;24805;55.852;37.644;2024-02-16T16:30:06;13.95;;;6.93;;
39050;SDS011;24805;55.852;37.644;2024-02-16T16:35:09;20.95;;;10.48;;
39050;SDS011;24805;55.852;37.644;2024-02-16T16:40:12;19.45;;;8.80;;
39050;SDS011;24805;55.852;37.644;2024-02-16T16:45:33;20.60;;;7.90;;
39050;SDS011;24805;55.852;37.644;2024-02-16T16:50:36;14.93;;;7.10;;
39050;SDS011;24805;55.852;37.644;2024-02-16T16:55:38;16.33;;;7.00;;
39050;SDS011;24805;55.852;37.644;2024-02-16T17:00:41;17.80;;;8.68;;
39050;SDS011;24805;55.852;37.644;2024-02-16T17:05:44;17.85;;;8.45;;
39050;SDS011;24805;55.852;37.644;2024-02-16T17:10:47;24.17;;;10.60;;
39050;SDS011;24805;55.852;37.644;2024-02-16T17:15:50;18.65;;;8.45;;
39050;SDS011;24805;55.852;37.644;2024-02-16T17:20:54;20.33;;;7.53;;
39050;SDS011;24805;55.852;37.644;2024-02-16T17:25:56;16.77;;;8.50;;
39050;SDS011;24805;55.852;37.644;2024-02-16T17:31:00;17.02;;;6.97;;
39050;SDS011;24805;55.852;37.644;2024-02-16T17:36:02;13.45;;;6.45;;
39050;SDS011;24805;55.852;37.644;2024-02-16T17:41:05;22.63;;;8.98;;
39050;SDS011;24805;55.852;37.644;2024-02-16T17:46:07;20.42;;;7.85;;
39050;SDS011;24805;55.852;37.644;2024-02-16T17:51:10;17.23;;;8.27;;
39050;SDS011;24805;55.852;37.644;2024-02-16T17:56:12;18.02;;;9.15;;
39050;SDS011;24805;55.852;37.644;2024-02-16T18:01:14;18.15;;;7.88;;
39050;SDS011;24805;55.852;37.644;2024-02-16T18:06:16;14.50;;;7.78;;
39050;SDS011;24805;55.852;37.644;2024-02-16T18:11:19;18.92;;;8.80;;
39050;SDS011;24805;55.852;37.644;2024-02-16T18:16:23;16.63;;;8.70;;
39050;SDS011;24805;55.852;37.644;2024-02-16T18:21:28;18.38;;;8.18;;
39050;SDS011;24805;55.852;37.644;2024-02-16T18:26:30;17.52;;;7.28;;
39050;SDS011;24805;55.852;37.644;2024-02-16T18:31:34;20.33;;;9.75;;
39050;SDS011;24805;55.852;37.644;2024-02-16T18:36:39;17.52;;;8.52;;
39050;SDS011;24805;55.852;37.644;2024-02-16T18:41:41;15.93;;;8.15;;
39050;SDS011;24805;55.852;37.644;2024-02-16T18:46:43;16.42;;;7.68;;
39050;SDS011;24805;55.852;37.644;2024-02-16T18:51:47;19.65;;;7.75;;
39050;SDS011;24805;55.852;37.644;2024-02-16T18:56:49;16.00;;;7.82;;
39050;SDS011;24805;55.852;37.644;2024-02-16T19:01:51;17.05;;;8.02;;
39050;SDS011;24805;55.852;37.644;2024-02-16T19:06:55;16.98;;;8.98;;
39050;SDS011;24805;55.852;37.644;2024-02-16T19:11:58;22.33;;;10.43;;
39050;SDS011;24805;55.852;37.644;2024-02-16T19:17:00;16.67;;;8.75;;
39050;SDS011;24805;55.852;37.644;2024-02-16T19:22:02;16.67;;;8.45;;
39050;SDS011;24805;55.852;37.644;2024-02-16T19:27:05;16.30;;;8.50;;
39050;SDS011;24805;55.852;37.644;2024-02-16T19:32:08;17.80;;;9.20;;
39050;SDS011;24805;55.852;37.644;2024-02-16T19:37:10;18.08;;;8.93;;
39050;SDS011;24805;55.852;37.644;2024-02-16T19:42:12;13.27;;;6.82;;
39050;SDS011;24805;55.852;37.644;2024-02-16T19:47:15;19.60;;;8.93;;
39050;SDS011;24805;55.852;37.644;2024-02-16T19:52:17;18.00;;;7.95;;
39050;SDS011;24805;55.852;37.644;2024-02-16T19:57:24;16.63;;;8.48;;
39050;SDS011;24805;55.852;37.644;2024-02-16T20:02:27;12.93;;;6.30;;
39050;SDS011;24805;55.852;37.644;2024-02-16T20:07:33;17.83;;;7.75;;
39050;SDS011;24805;55.852;37.644;2024-02-16T20:12:35;17.13;;;8.02;;
39050;SDS011;24805;55.852;37.644;2024-02-16T20:17:38;13.73;;;7.35;;
39050;SDS011;24805;55.852;37.644;2024-02-16T20:22:40;21.70;;;9.32;;
39050;SDS011;24805;55.852;37.644;2024-02-16T20:27:43;19.50;;;8.70;;
39050;SDS011;24805;55.852;37.644;2024-02-16T20:32:46;19.20;;;7.47;;
39050;SDS011;24805;55.852;37.644;2024-02-16T20:37:52;17.45;;;8.57;;
39050;SDS011;24805;55.852;37.644;2024-02-16T20:42:55;12.63;;;4.35;;
39050;SDS011;24805;55.852;37.644;2024-02-16T20:48:01;18.80;;;7.97;;
39050;SDS011;24805;55.852;37.644;2024-02-16T20:53:03;10.32;;;5.47;;
39050;SDS011;24805;55.852;37.644;2024-02-16T20:58:06;16.08;;;7.57;;
39050;SDS011;24805;55.852;37.644;2024-02-16T21:03:08;16.77;;;8.18;;
39050;SDS011;24805;55.852;37.644;2024-02-16T21:08:11;16.10;;;8.35;;
39050;SDS011;24805;55.852;37.644;2024-02-16T21:13:14;15.02;;;8.02;;
39050;SDS011;24805;55.852;37.644;2024-02-16T21:18:18;17.45;;;6.30;;
39050;SDS011;24805;55.852;37.644;2024-02-16T21:23:20;20.48;;;8.65;;
39050;SDS011;24805;55.852;37.644;2024-02-16T21:28:23;16.40;;;7.93;;
39050;SDS011;24805;55.852;37.644;2024-02-16T21:33:25;19.55;;;8.32;;
39050;SDS011;24805;55.852;37.644;2024-02-16T21:38:28;21.45;;;10.52;;
39050;SDS011;24805;55.852;37.644;2024-02-16T21:43:30;20.92;;;9.52;;
39050;SDS011;24805;55.852;37.644;2024-02-16T21:48:33;20.80;;;8.48;;
39050;SDS011;24805;55.852;37.644;2024-02-16T21:53:49;22.30;;;9.77;;
39050;SDS011;24805;55.852;37.644;2024-02-16T21:58:52;16.77;;;9.35;;
39050;SDS011;24805;55.852;37.644;2024-02-16T22:03:56;21.10;;;10.60;;
39050;SDS011;24805;55.852;37.644;2024-02-16T22:08:58;23.05;;;10.70;;
39050;SDS011;24805;55.852;37.644;2024-02-16T22:14:01;21.30;;;10.05;;
39050;SDS011;24805;55.852;37.644;2024-02-16T22:19:03;21.45;;;10.43;;
39050;SDS011;24805;55.852;37.644;2024-02-16T22:24:05;15.52;;;7.68;;
39050;SDS011;24805;55.852;37.644;2024-02-16T22:29:08;18.50;;;8.57;;
39050;SDS011;24805;55.852;37.644;2024-02-16T22:34:10;22.35;;;11.38;;
39050;SDS011;24805;55.852;37.644;2024-02-16T22:39:13;20.23;;;8.68;;
39050;SDS011;24805;55.852;37.644;2024-02-16T22:44:17;22.00;;;10.45;;
39050;SDS011;24805;55.852;37.644;2024-02-16T22:49:19;18.77;;;8.63;;
39050;SDS011;24805;55.852;37.644;2024-02-16T22:54:22;21.00;;;9.65;;
39050;SDS011;24805;55.852;37.644;2024-02-16T22:59:24;17.92;;;7.88;;
39050;SDS011;24805;55.852;37.644;2024-02-16T23:04:27;22.58;;;10.07;;
39050;SDS011;24805;55.852;37.644;2024-02-16T23:09:29;19.65;;;9.00;;
39050;SDS011;24805;55.852;37.644;2024-02-16T23:14:33;19.75;;;9.73;;
39050;SDS011;24805;55.852;37.644;2024-02-16T23:19:36;23.60;;;10.43;;
39050;SDS011;24805;55.852;37.644;2024-02-16T23:24:39;16.00;;;8.77;;
39050;SDS011;24805;55.852;37.644;2024-02-16T23:29:42;19.08;;;10.25;;
39050;SDS011;24805;55.852;37.644;2024-02-16T23:34:44;22.65;;;9.43;;
39050;SDS011;24805;55.852;37.644;2024-02-16T23:39:47;19.17;;;8.00;;
39050;SDS011;24805;55.852;37.644;2024-02-16T23:44:50;22.15;;;10.68;;
39050;SDS011;24805;55.852;37.644;2024-02-16T23:49:52;20.00;;;9.57;;
39050;SDS011;24805;55.852;37.644;2024-02-16T23:54:55;19.10;;;10.18;;
39050;SDS011;24805;55.852;37.644;2024-02-16T23:59:58;25.77;;;13.07;;
